Time;durP1;ratioP1;P1;durP2;ratioP2;P2;SDS_P1;SDS_P2;PMS_P1;PMS_P2;Temp;Humidity;BMP_temperature;BMP_pressure;BME280_temperature;BME280_humidity;BME280_pressure;Samples;Min_cycle;Max_cycle;Signal;HPM_P1;HPM_P2
2022/02/24 00:00:23;;;;;;;7.18;5.82;;;6.80;99.90;;;;;;5136421;27;20649;-66
2022/02/24 00:02:51;;;;;;;8.85;5.50;;;6.70;99.90;;;;;;5136593;27;20207;-66
2022/02/24 00:05:18;;;;;;;7.15;5.78;;;6.60;99.90;;;;;;5136442;27;20248;-66
2022/02/24 00:07:45;;;;;;;7.13;5.50;;;6.40;99.90;;;;;;5136449;27;20220;-66
2022/02/24 00:10:15;;;;;;;7.45;6.30;;;6.20;99.90;;;;;;5136212;27;20239;-66
2022/02/24 00:12:42;;;;;;;9.52;7.50;;;6.10;99.90;;;;;;5136022;27;20236;-66
2022/02/24 00:15:10;;;;;;;8.57;6.68;;;6.00;99.90;;;;;;5135290;27;20566;-66
2022/02/24 00:17:38;;;;;;;8.60;6.45;;;6.20;99.90;;;;;;5136032;27;20224;-66
2022/02/24 00:20:08;;;;;;;8.57;6.68;;;6.20;99.90;;;;;;5135514;27;20296;-66
2022/02/24 00:22:35;;;;;;;7.03;6.40;;;6.30;99.90;;;;;;5135478;27;20232;-66
2022/02/24 00:25:04;;;;;;;7.75;6.47;;;6.40;99.90;;;;;;5135712;27;20534;-66
2022/02/24 00:27:30;;;;;;;7.25;6.55;;;6.50;99.90;;;;;;5135684;27;20258;-66
2022/02/24 00:29:57;;;;;;;8.60;5.95;;;6.70;99.90;;;;;;5135517;27;20287;-66
2022/02/24 00:32:24;;;;;;;9.38;5.60;;;6.80;99.90;;;;;;5135494;27;20311;-68
2022/02/24 00:34:51;;;;;;;8.80;6.50;;;6.80;99.90;;;;;;5135974;27;20208;-68
2022/02/24 00:37:19;;;;;;;8.43;6.80;;;6.90;99.90;;;;;;5135858;27;20306;-66
2022/02/24 00:39:46;;;;;;;8.32;6.40;;;6.90;99.90;;;;;;5135330;27;20211;-65
2022/02/24 00:42:13;;;;;;;8.07;6.05;;;7.00;99.90;;;;;;5135400;27;20277;-65
2022/02/24 00:44:40;;;;;;;6.63;5.20;;;7.10;99.90;;;;;;5135373;27;20585;-69
2022/02/24 00:47:07;;;;;;;6.35;5.75;;;7.20;99.90;;;;;;5135491;27;20225;-68
2022/02/24 00:49:34;;;;;;;8.75;6.70;;;7.10;99.90;;;;;;5135599;27;20203;-68
2022/02/24 00:52:01;;;;;;;8.07;6.40;;;6.90;99.90;;;;;;5135060;27;20291;-67
2022/02/24 00:54:30;;;;;;;9.90;7.47;;;6.70;99.90;;;;;;5135706;27;20197;-66
2022/02/24 00:56:56;;;;;;;8.63;7.53;;;6.60;99.90;;;;;;5135183;27;20221;-67
2022/02/24 00:59:23;;;;;;;7.32;6.63;;;6.50;99.90;;;;;;5135092;27;20299;-68
2022/02/24 01:01:50;;;;;;;9.95;6.63;;;6.60;99.90;;;;;;5134922;27;20613;-66
2022/02/24 01:04:17;;;;;;;8.57;6.90;;;6.50;99.90;;;;;;5134993;27;20207;-67
2022/02/24 01:06:44;;;;;;;7.38;6.65;;;6.40;99.90;;;;;;5135067;27;20225;-67
2022/02/24 01:09:11;;;;;;;8.60;7.75;;;6.40;99.90;;;;;;5135147;27;20201;-67
2022/02/24 01:11:39;;;;;;;9.38;8.15;;;6.40;99.90;;;;;;5134572;27;20239;-67
2022/02/24 01:14:06;;;;;;;10.30;8.23;;;6.50;99.90;;;;;;5135040;27;20205;-67
2022/02/24 01:16:33;;;;;;;10.00;8.70;;;6.60;99.90;;;;;;5134749;27;20217;-66
2022/02/24 01:19:00;;;;;;;9.63;8.38;;;6.60;99.90;;;;;;5135142;27;20555;-67
2022/02/24 01:21:27;;;;;;;11.48;9.20;;;6.50;99.90;;;;;;5134818;27;20197;-67
2022/02/24 01:23:55;;;;;;;12.65;9.02;;;6.40;99.90;;;;;;5135062;27;20205;-68
2022/02/24 01:26:21;;;;;;;12.05;8.50;;;6.40;99.90;;;;;;5135526;27;20231;-69
2022/02/24 01:28:50;;;;;;;11.75;8.55;;;6.30;99.90;;;;;;5135878;27;20181;-68
2022/02/24 01:31:17;;;;;;;8.75;7.85;;;6.30;99.90;;;;;;5135381;27;20207;-68
2022/02/24 01:33:44;;;;;;;10.93;9.43;;;6.40;99.90;;;;;;5135541;27;20750;-68
2022/02/24 01:36:11;;;;;;;14.43;9.40;;;6.40;99.90;;;;;;5135622;27;20351;-68
2022/02/24 01:38:38;;;;;;;13.50;9.90;;;6.40;99.90;;;;;;5135414;27;20295;-68
2022/02/24 01:41:05;;;;;;;12.60;8.70;;;6.40;99.90;;;;;;5135242;27;20200;-68
2022/02/24 01:43:31;;;;;;;12.00;9.43;;;6.60;99.90;;;;;;5135292;27;20205;-68
2022/02/24 01:46:00;;;;;;;10.55;9.45;;;6.50;99.90;;;;;;5135456;27;20593;-68
2022/02/24 01:48:26;;;;;;;11.68;9.50;;;6.60;99.90;;;;;;5135535;27;20627;-68
2022/02/24 01:50:53;;;;;;;11.68;9.90;;;6.70;99.90;;;;;;5135126;27;20216;-68
2022/02/24 01:53:20;;;;;;;10.60;9.15;;;6.60;99.90;;;;;;5135591;27;20201;-68
2022/02/24 01:55:47;;;;;;;11.65;9.43;;;6.50;99.90;;;;;;5135295;27;20610;-68
2022/02/24 01:58:17;;;;;;;10.98;8.98;;;6.40;99.90;;;;;;5135308;27;20220;-68
2022/02/24 02:00:44;;;;;;;11.80;9.50;;;6.30;99.90;;;;;;5134999;27;20291;-68
2022/02/24 02:03:12;;;;;;;10.50;9.07;;;6.40;99.90;;;;;;5135171;27;20203;-68
2022/02/24 02:05:39;;;;;;;11.18;8.40;;;6.30;99.90;;;;;;5135117;27;20220;-68
2022/02/24 02:08:07;;;;;;;8.75;7.75;;;6.40;99.90;;;;;;5135085;27;20230;-68
2022/02/24 02:10:34;;;;;;;10.40;8.32;;;6.40;99.90;;;;;;5134790;27;20566;-68
2022/02/24 02:13:01;;;;;;;10.05;7.60;;;6.40;99.90;;;;;;5135049;27;20204;-68
2022/02/24 02:15:28;;;;;;;9.18;7.55;;;6.40;99.90;;;;;;5135025;27;20193;-68
2022/02/24 02:17:54;;;;;;;8.55;7.75;;;6.50;99.90;;;;;;5134963;27;20588;-68
2022/02/24 02:20:23;;;;;;;8.40;7.43;;;6.50;99.90;;;;;;5134946;27;20197;-68
2022/02/24 02:22:53;;;;;;;12.75;8.32;;;6.60;99.90;;;;;;5134796;27;20200;-68
2022/02/24 02:25:21;;;;;;;10.20;7.95;;;6.70;99.90;;;;;;5134501;27;20229;-68
2022/02/24 02:27:49;;;;;;;8.88;7.10;;;6.80;99.90;;;;;;5134533;27;20235;-68
2022/02/24 02:30:17;;;;;;;8.15;7.35;;;6.90;99.90;;;;;;5134599;27;20200;-68
2022/02/24 02:32:44;;;;;;;8.10;7.30;;;6.90;99.90;;;;;;5134430;27;20674;-68
2022/02/24 02:35:11;;;;;;;10.48;8.18;;;6.90;99.90;;;;;;5134690;27;20287;-68
2022/02/24 02:37:38;;;;;;;9.40;8.13;;;7.00;99.90;;;;;;5134387;27;20220;-68
2022/02/24 02:40:08;;;;;;;9.00;7.13;;;7.00;99.90;;;;;;5134070;27;20207;-68
2022/02/24 02:42:35;;;;;;;7.00;6.18;;;7.10;99.90;;;;;;5135198;27;20207;-68
2022/02/24 02:45:03;;;;;;;9.55;7.95;;;7.10;99.90;;;;;;5134558;27;20651;-68
2022/02/24 02:47:30;;;;;;;7.55;6.85;;;7.20;99.90;;;;;;5134502;27;20228;-68
2022/02/24 02:49:56;;;;;;;8.05;6.82;;;7.30;99.90;;;;;;5134519;27;20291;-68
2022/02/24 02:52:23;;;;;;;7.35;6.50;;;7.30;99.90;;;;;;5134300;27;20295;-68
2022/02/24 02:54:55;;;;;;;8.02;7.22;;;7.30;99.90;;;;;;5134545;27;20291;-68
2022/02/24 02:57:23;;;;;;;7.22;6.28;;;7.00;99.90;;;;;;5134553;27;20220;-68
2022/02/24 02:59:50;;;;;;;8.55;6.50;;;6.80;99.90;;;;;;5134513;27;20299;-68
2022/02/24 03:02:17;;;;;;;9.75;8.40;;;6.80;99.90;;;;;;5134346;27;20727;-67
2022/02/24 03:04:44;;;;;;;11.68;8.32;;;6.60;99.90;;;;;;5134444;27;20212;-68
2022/02/24 03:07:11;;;;;;;8.75;7.50;;;6.40;99.90;;;;;;5134399;27;20224;-68
2022/02/24 03:09:37;;;;;;;10.43;8.63;;;6.50;99.90;;;;;;5134320;27;20757;-68
2022/02/24 03:12:05;;;;;;;8.20;7.40;;;6.60;99.90;;;;;;5134368;27;20299;-67
2022/02/24 03:14:35;;;;;;;6.82;6.13;;;6.80;99.90;;;;;;5134775;27;20201;-68
2022/02/24 03:17:01;;;;;;;9.02;7.05;;;6.80;99.90;;;;;;5134022;27;20307;-68
2022/02/24 03:19:28;;;;;;;7.13;6.43;;;6.90;99.90;;;;;;5134088;27;20207;-68
2022/02/24 03:21:55;;;;;;;6.35;5.38;;;7.00;99.90;;;;;;5134128;27;20205;-68
2022/02/24 03:24:22;;;;;;;7.45;6.60;;;7.20;99.90;;;;;;5134281;27;20291;-68
2022/02/24 03:26:49;;;;;;;7.03;6.32;;;7.20;99.90;;;;;;5133918;27;20243;-68
2022/02/24 03:29:16;;;;;;;7.65;6.53;;;7.30;99.90;;;;;;5133978;27;20201;-68
2022/02/24 03:31:44;;;;;;;6.78;6.07;;;7.30;99.90;;;;;;5133702;27;20207;-68
2022/02/24 03:34:12;;;;;;;6.68;5.40;;;7.20;99.90;;;;;;5134188;27;20207;-67
2022/02/24 03:36:39;;;;;;;8.75;7.80;;;7.10;99.90;;;;;;5134147;27;20303;-68
2022/02/24 03:39:06;;;;;;;8.05;6.75;;;7.00;99.90;;;;;;5133871;27;20211;-68
2022/02/24 03:41:33;;;;;;;10.02;7.80;;;6.90;99.90;;;;;;5133858;27;20749;-68
2022/02/24 03:44:00;;;;;;;6.50;5.90;;;6.80;99.90;;;;;;5134075;27;20206;-68
2022/02/24 03:46:27;;;;;;;10.35;8.70;;;6.70;99.90;;;;;;5133926;27;20686;-67
2022/02/24 03:48:55;;;;;;;9.00;8.05;;;6.60;99.90;;;;;;5134029;27;20201;-68
2022/02/24 03:51:22;;;;;;;10.07;8.20;;;6.50;99.90;;;;;;5135941;27;20295;-68
2022/02/24 03:53:49;;;;;;;10.25;8.57;;;6.50;99.90;;;;;;5137734;27;20196;-68
2022/02/24 03:56:15;;;;;;;9.48;8.20;;;6.50;99.90;;;;;;5137601;27;20283;-68
2022/02/24 03:58:42;;;;;;;8.57;7.70;;;6.50;99.90;;;;;;5137620;27;20291;-67
2022/02/24 04:01:09;;;;;;;9.75;7.75;;;6.50;99.90;;;;;;5137340;27;20200;-68
2022/02/24 04:03:36;;;;;;;9.00;7.50;;;6.70;99.90;;;;;;5137534;27;20292;-68
2022/02/24 04:06:04;;;;;;;8.38;7.55;;;6.80;99.90;;;;;;5137336;27;20220;-68
2022/02/24 04:08:31;;;;;;;8.63;7.30;;;6.90;99.90;;;;;;5137535;27;20287;-68
2022/02/24 04:10:58;;;;;;;8.25;6.90;;;7.00;99.90;;;;;;5137084;27;20203;-68
2022/02/24 04:13:24;;;;;;;7.97;6.20;;;7.00;99.90;;;;;;5137202;27;20215;-68
2022/02/24 04:15:51;;;;;;;7.78;6.18;;;7.10;99.90;;;;;;5137348;27;20283;-68
2022/02/24 04:18:18;;;;;;;7.15;6.45;;;7.00;99.90;;;;;;5137149;27;20706;-68
2022/02/24 04:20:46;;;;;;;7.50;6.25;;;6.90;99.90;;;;;;5136961;27;20309;-67
2022/02/24 04:23:15;;;;;;;8.15;7.13;;;6.80;99.90;;;;;;5137050;27;20741;-68
2022/02/24 04:25:41;;;;;;;9.07;7.32;;;6.60;99.90;;;;;;5137020;27;20224;-68
2022/02/24 04:28:08;;;;;;;9.80;8.80;;;6.50;99.90;;;;;;5136883;27;20229;-68
2022/02/24 04:30:35;;;;;;;9.65;8.40;;;6.40;99.90;;;;;;5136863;27;20565;-68
2022/02/24 04:33:02;;;;;;;10.23;8.27;;;6.40;99.90;;;;;;5136779;27;20196;-68
2022/02/24 04:35:29;;;;;;;12.38;8.80;;;6.40;99.90;;;;;;5136954;27;20204;-68
2022/02/24 04:37:55;;;;;;;9.85;8.85;;;6.40;99.90;;;;;;5136840;27;20220;-68
2022/02/24 04:40:23;;;;;;;11.40;8.85;;;6.20;99.90;;;;;;5136530;27;20207;-68
2022/02/24 04:42:50;;;;;;;10.43;8.88;;;6.20;99.90;;;;;;5136777;27;20197;-68
2022/02/24 04:45:17;;;;;;;9.85;8.80;;;6.10;99.90;;;;;;5136525;27;20200;-68
2022/02/24 04:47:44;;;;;;;8.98;7.30;;;6.10;99.90;;;;;;5136694;27;20231;-68
2022/02/24 04:50:11;;;;;;;8.13;7.20;;;6.00;99.90;;;;;;5136279;27;20196;-67
2022/02/24 04:52:38;;;;;;;12.88;8.00;;;6.10;99.90;;;;;;5136559;27;20255;-68
2022/02/24 04:55:07;;;;;;;12.00;8.75;;;6.10;99.90;;;;;;5136446;27;20223;-68
2022/02/24 04:57:35;;;;;;;10.88;9.52;;;6.20;99.90;;;;;;5136183;27;20213;-68
2022/02/24 05:00:02;;;;;;;11.88;9.85;;;6.20;99.90;;;;;;5136237;27;20292;-68
2022/02/24 05:02:29;;;;;;;11.35;9.48;;;6.20;99.90;;;;;;5135882;27;20205;-68
2022/02/24 05:04:56;;;;;;;13.68;10.02;;;6.30;99.90;;;;;;5136240;27;20741;-68
2022/02/24 05:07:22;;;;;;;13.23;9.57;;;6.40;99.90;;;;;;5135949;27;20256;-68
2022/02/24 05:09:49;;;;;;;9.75;8.75;;;6.40;99.90;;;;;;5136057;27;20200;-68
2022/02/24 05:12:16;;;;;;;10.90;9.45;;;6.30;99.90;;;;;;5136160;27;20296;-68
2022/02/24 05:14:44;;;;;;;11.63;9.10;;;6.20;99.90;;;;;;5136179;27;20227;-68
2022/02/24 05:17:11;;;;;;;11.82;9.13;;;6.20;99.90;;;;;;5136128;27;20308;-68
2022/02/24 05:19:38;;;;;;;11.90;9.90;;;6.10;99.90;;;;;;5136091;27;20295;-68
2022/02/24 05:22:05;;;;;;;10.90;9.40;;;6.00;99.90;;;;;;5135853;27;20700;-68
2022/02/24 05:24:31;;;;;;;11.57;10.35;;;6.00;99.90;;;;;;5135947;27;20207;-68
2022/02/24 05:26:58;;;;;;;11.60;9.93;;;5.90;99.90;;;;;;5135603;27;20227;-68
2022/02/24 05:29:25;;;;;;;11.57;10.02;;;5.70;99.90;;;;;;5135879;27;20205;-68
2022/02/24 05:31:53;;;;;;;12.38;10.57;;;5.70;99.90;;;;;;5135642;27;20203;-68
2022/02/24 05:34:20;;;;;;;12.98;10.70;;;5.60;99.90;;;;;;5135779;27;20571;-68
2022/02/24 05:36:47;;;;;;;12.13;10.82;;;5.50;99.90;;;;;;5135672;27;20212;-68
2022/02/24 05:39:14;;;;;;;12.98;10.43;;;5.40;99.90;;;;;;5135642;27;20292;-68
2022/02/24 05:41:41;;;;;;;13.40;10.90;;;5.40;99.90;;;;;;5135274;27;20654;-67
2022/02/24 05:44:07;;;;;;;11.77;10.57;;;5.30;99.90;;;;;;5135557;27;20630;-67
2022/02/24 05:46:34;;;;;;;13.93;11.05;;;5.30;99.90;;;;;;5135364;27;20225;-67
2022/02/24 05:49:03;;;;;;;12.00;10.60;;;5.10;99.90;;;;;;5135163;27;20200;-67
2022/02/24 05:51:30;;;;;;;11.98;10.60;;;5.10;99.90;;;;;;5135273;27;20654;-68
2022/02/24 05:53:56;;;;;;;11.70;10.40;;;5.10;99.90;;;;;;5135287;27;20200;-68
2022/02/24 05:56:23;;;;;;;12.50;10.85;;;5.00;99.90;;;;;;5135262;27;20239;-68
2022/02/24 05:58:50;;;;;;;11.15;9.95;;;5.10;99.90;;;;;;5135323;27;20196;-68
2022/02/24 06:01:17;;;;;;;14.18;10.60;;;5.00;99.90;;;;;;5134893;27;20211;-67
2022/02/24 06:03:44;;;;;;;13.77;11.93;;;5.00;99.90;;;;;;5135140;27;20608;-68
2022/02/24 06:06:12;;;;;;;13.68;10.77;;;5.10;99.90;;;;;;5135655;27;20304;-68
2022/02/24 06:08:39;;;;;;;11.48;10.27;;;5.20;99.90;;;;;;5135145;27;20292;-68
2022/02/24 06:11:06;;;;;;;12.93;9.70;;;5.10;99.90;;;;;;5134980;27;20692;-68
2022/02/24 06:13:32;;;;;;;14.25;9.55;;;5.20;99.90;;;;;;5134349;27;20201;-68
2022/02/24 06:16:01;;;;;;;12.93;11.00;;;5.30;99.90;;;;;;5134956;27;20203;-68
2022/02/24 06:18:28;;;;;;;11.85;10.40;;;5.30;99.90;;;;;;5134895;27;20206;-67
2022/02/24 06:20:54;;;;;;;13.40;10.45;;;5.20;99.90;;;;;;5134754;27;20207;-68
2022/02/24 06:23:23;;;;;;;15.40;11.48;;;5.30;99.90;;;;;;5134751;27;20567;-68
2022/02/24 06:25:49;;;;;;;14.70;11.05;;;5.30;99.90;;;;;;5134758;27;20211;-68
2022/02/24 06:28:16;;;;;;;14.80;12.13;;;5.30;99.90;;;;;;5134431;27;20239;-68
2022/02/24 06:30:43;;;;;;;13.77;11.65;;;5.20;99.90;;;;;;5134446;27;20196;-68
2022/02/24 06:33:10;;;;;;;16.10;12.10;;;5.20;99.90;;;;;;5134780;27;20560;-68
2022/02/24 06:35:37;;;;;;;14.48;11.60;;;5.20;99.90;;;;;;5134734;27;20223;-68
2022/02/24 06:38:04;;;;;;;14.38;11.52;;;5.10;99.90;;;;;;5134772;27;20227;-68
2022/02/24 06:40:32;;;;;;;14.00;11.38;;;5.00;99.90;;;;;;5134293;27;20207;-68
2022/02/24 06:43:00;;;;;;;15.10;11.40;;;5.10;99.90;;;;;;5134541;27;20200;-68
2022/02/24 06:45:27;;;;;;;13.70;11.30;;;5.20;99.90;;;;;;5134496;27;20204;-68
2022/02/24 06:47:54;;;;;;;17.45;10.93;;;5.30;99.90;;;;;;5134472;28;20238;-68
2022/02/24 06:50:21;;;;;;;15.95;11.02;;;5.30;99.90;;;;;;5134583;28;20240;-68
2022/02/24 06:52:48;;;;;;;13.23;10.93;;;5.20;99.90;;;;;;5134541;28;20212;-68
2022/02/24 06:55:14;;;;;;;12.50;10.35;;;5.10;99.90;;;;;;5134417;28;20670;-68
2022/02/24 06:57:46;;;;;;;11.93;10.00;;;5.10;99.90;;;;;;5134417;28;20220;-68
2022/02/24 07:00:14;;;;;;;11.90;10.57;;;5.20;99.90;;;;;;5134429;28;20619;-68
2022/02/24 07:02:41;;;;;;;14.38;10.55;;;5.20;99.90;;;;;;5134258;28;20201;-68
2022/02/24 07:05:09;;;;;;;12.40;10.60;;;5.20;99.90;;;;;;5134286;28;20287;-68
2022/02/24 07:07:36;;;;;;;15.38;10.93;;;5.20;99.90;;;;;;5134313;27;20232;-68
2022/02/24 07:10:04;;;;;;;16.52;11.38;;;5.30;99.90;;;;;;5134173;28;20203;-68
2022/02/24 07:12:31;;;;;;;14.60;11.02;;;5.30;99.90;;;;;;5134371;28;20196;-68
2022/02/24 07:15:00;;;;;;;13.93;10.95;;;5.40;99.90;;;;;;5134327;28;20201;-68
2022/02/24 07:17:26;;;;;;;15.63;11.32;;;5.40;99.90;;;;;;5134304;28;20224;-68
2022/02/24 07:19:53;;;;;;;13.27;10.50;;;5.50;99.90;;;;;;5134115;28;20565;-68
2022/02/24 07:22:20;;;;;;;19.25;10.98;;;5.50;99.90;;;;;;5134054;28;20200;-68
2022/02/24 07:24:47;;;;;;;14.10;11.10;;;5.60;99.90;;;;;;5135427;27;20203;-68
2022/02/24 07:27:14;;;;;;;13.45;11.13;;;5.70;99.90;;;;;;5137869;27;20315;-68
2022/02/24 07:29:40;;;;;;;14.43;11.38;;;5.70;99.90;;;;;;5138166;27;20296;-67
2022/02/24 07:32:10;;;;;;;14.00;12.15;;;5.80;99.90;;;;;;5138189;27;20196;-68
2022/02/24 07:34:37;;;;;;;16.95;11.98;;;5.90;99.90;;;;;;5138109;27;20227;-68
2022/02/24 07:37:04;;;;;;;17.92;12.07;;;5.90;99.90;;;;;;5137996;27;20216;-68
2022/02/24 07:39:31;;;;;;;20.98;12.10;;;6.00;99.90;;;;;;5137682;27;20704;-68
2022/02/24 07:41:58;;;;;;;16.38;12.25;;;6.10;99.90;;;;;;5137825;27;20227;-68
2022/02/24 07:44:24;;;;;;;14.90;12.60;;;6.10;99.90;;;;;;5137751;27;20317;-68
2022/02/24 07:46:51;;;;;;;16.27;12.52;;;6.20;99.90;;;;;;5137533;27;20312;-68
2022/02/24 07:49:22;;;;;;;17.13;12.77;;;6.20;99.90;;;;;;5137861;27;20203;-68
2022/02/24 07:51:51;;;;;;;15.48;12.85;;;6.20;99.90;;;;;;5137559;27;20208;-68
2022/02/24 07:54:18;;;;;;;19.33;12.57;;;6.30;99.90;;;;;;5137659;27;20205;-68
2022/02/24 07:56:46;;;;;;;14.43;12.18;;;6.40;99.90;;;;;;5137691;27;20239;-68
2022/02/24 07:59:13;;;;;;;13.98;11.35;;;6.40;99.90;;;;;;5137795;27;20201;-68
2022/02/24 08:01:41;;;;;;;20.45;12.82;;;6.40;99.90;;;;;;5137515;27;20200;-68
2022/02/24 08:04:08;;;;;;;21.08;12.65;;;6.40;99.90;;;;;;5129108;27;20204;-70
2022/02/24 08:06:36;;;;;;;18.70;13.20;;;6.30;99.90;;;;;;5129773;27;20680;-69
2022/02/24 08:09:03;;;;;;;16.33;13.63;;;6.30;99.90;;;;;;5136661;27;20224;-69
2022/02/24 08:11:32;;;;;;;16.05;12.27;;;6.40;99.90;;;;;;5136069;27;20232;-68
2022/02/24 08:13:59;;;;;;;16.25;13.40;;;6.40;99.90;;;;;;5136574;27;20287;-68
2022/02/24 08:16:25;;;;;;;13.70;11.38;;;6.50;99.90;;;;;;5135981;27;20220;-69
2022/02/24 08:18:55;;;;;;;15.27;11.38;;;6.50;99.90;;;;;;5135793;27;20303;-69
2022/02/24 08:21:22;;;;;;;19.42;12.23;;;6.60;99.90;;;;;;5136181;27;20210;-68
2022/02/24 08:23:50;;;;;;;14.35;11.98;;;6.80;99.90;;;;;;5136152;27;20197;-68
2022/02/24 08:26:17;;;;;;;16.40;12.30;;;6.80;99.90;;;;;;5135610;27;20208;-70
2022/02/24 08:28:44;;;;;;;15.52;12.80;;;6.80;99.90;;;;;;5135629;27;20227;-68
2022/02/24 08:31:11;;;;;;;15.00;11.35;;;6.80;99.90;;;;;;5135677;27;20197;-68
2022/02/24 08:33:37;;;;;;;19.33;12.63;;;6.90;99.90;;;;;;5135527;27;20196;-68
2022/02/24 08:36:04;;;;;;;13.73;11.60;;;6.90;99.90;;;;;;5134957;27;20377;-68
2022/02/24 08:38:31;;;;;;;15.35;11.45;;;7.00;99.90;;;;;;5136212;27;20192;-67
2022/02/24 08:40:59;;;;;;;12.15;10.80;;;7.20;99.90;;;;;;5135734;27;20205;-67
2022/02/24 08:43:26;;;;;;;12.00;10.38;;;7.30;99.90;;;;;;5135756;27;20600;-67
2022/02/24 08:45:53;;;;;;;11.88;10.63;;;7.40;99.90;;;;;;5135620;27;20209;-67
2022/02/24 08:48:20;;;;;;;13.75;10.77;;;7.40;99.90;;;;;;5135294;27;20225;-66
2022/02/24 08:50:47;;;;;;;12.52;10.20;;;7.60;99.90;;;;;;5135328;27;20624;-66
2022/02/24 08:53:13;;;;;;;12.50;10.75;;;7.60;99.90;;;;;;5135584;27;20207;-66
2022/02/24 08:55:40;;;;;;;11.98;10.77;;;7.70;99.90;;;;;;5135686;27;20200;-68
2022/02/24 08:58:08;;;;;;;13.98;11.38;;;7.80;99.90;;;;;;5136535;27;20601;-69
2022/02/24 09:00:36;;;;;;;12.35;10.57;;;7.80;99.90;;;;;;5136501;27;20726;-68
2022/02/24 09:03:03;;;;;;;15.80;12.27;;;7.90;99.90;;;;;;5136147;27;20681;-68
2022/02/24 09:05:30;;;;;;;10.48;9.45;;;8.00;99.90;;;;;;5136385;27;20222;-68
2022/02/24 09:07:57;;;;;;;14.32;11.40;;;8.00;99.90;;;;;;5135884;27;20231;-68
2022/02/24 09:10:23;;;;;;;14.05;10.77;;;8.10;99.90;;;;;;5135831;27;20680;-68
2022/02/24 09:12:50;;;;;;;11.18;9.88;;;8.20;99.90;;;;;;5136238;27;20196;-68
2022/02/24 09:15:18;;;;;;;9.43;8.30;;;8.20;99.90;;;;;;5136131;27;20292;-68
2022/02/24 09:17:47;;;;;;;7.35;6.57;;;8.40;99.90;;;;;;5135860;27;20217;-68
2022/02/24 09:20:14;;;;;;;8.57;5.25;;;8.60;99.90;;;;;;5135984;27;20316;-68
2022/02/24 09:22:41;;;;;;;6.40;5.03;;;8.80;99.90;;;;;;5136110;27;20207;-68
2022/02/24 09:25:09;;;;;;;5.28;4.30;;;9.10;99.90;;;;;;5135875;27;20291;-68
2022/02/24 09:27:36;;;;;;;6.95;5.80;;;9.40;99.90;;;;;;5135652;27;20251;-68
2022/02/24 09:30:04;;;;;;;10.35;4.97;;;9.60;99.90;;;;;;5135739;27;20197;-68
2022/02/24 09:32:34;;;;;;;5.80;4.53;;;9.90;99.90;;;;;;5135831;27;20201;-68
2022/02/24 09:35:01;;;;;;;6.82;5.70;;;10.20;99.90;;;;;;5135844;27;20205;-68
2022/02/24 09:37:34;;;;;;;6.93;6.22;;;10.40;99.90;;;;;;5135825;27;20221;-68
2022/02/24 09:40:01;;;;;;;5.88;4.95;;;10.60;99.90;;;;;;5135612;27;20197;-68
2022/02/24 09:42:28;;;;;;;8.27;6.45;;;10.80;99.90;;;;;;5136097;27;20196;-68
2022/02/24 09:44:55;;;;;;;6.90;6.20;;;10.90;99.90;;;;;;5136126;27;20201;-69
2022/02/24 09:47:22;;;;;;;8.35;6.63;;;10.90;99.90;;;;;;5135172;27;20264;-67
2022/02/24 09:49:51;;;;;;;9.68;6.70;;;11.10;99.90;;;;;;5135041;27;20289;-66
2022/02/24 09:52:18;;;;;;;10.88;6.32;;;11.30;99.90;;;;;;5135656;27;20201;-67
2022/02/24 09:54:45;;;;;;;10.52;5.80;;;11.40;99.90;;;;;;5135712;27;20200;-66
2022/02/24 09:57:12;;;;;;;5.40;4.72;;;11.50;99.90;;;;;;5135037;27;20220;-66
2022/02/24 09:59:39;;;;;;;5.90;4.90;;;11.60;99.90;;;;;;5135157;27;20200;-67
2022/02/24 10:02:05;;;;;;;5.45;4.60;;;11.70;99.90;;;;;;5135311;27;20242;-68
2022/02/24 10:04:33;;;;;;;4.68;4.28;;;11.80;99.90;;;;;;5135217;27;20207;-68
2022/02/24 10:07:01;;;;;;;4.97;4.25;;;11.90;99.90;;;;;;5135071;27;20268;-66
2022/02/24 10:09:31;;;;;;;4.25;3.85;;;12.10;99.90;;;;;;5135150;27;20204;-66
2022/02/24 10:12:06;;;;;;;4.13;3.67;;;12.30;99.90;;;;;;5134792;27;20207;-66
2022/02/24 10:14:34;;;;;;;4.00;3.28;;;12.40;99.90;;;;;;5134911;27;20204;-66
2022/02/24 10:17:03;;;;;;;3.40;3.10;;;12.60;99.90;;;;;;5134785;27;20248;-67
2022/02/24 10:19:32;;;;;;;4.85;3.50;;;12.90;99.80;;;;;;5134708;27;20201;-66
2022/02/24 10:22:08;;;;;;;3.17;2.60;;;13.10;99.00;;;;;;5134766;27;20212;-66
2022/02/24 10:24:35;;;;;;;4.63;2.88;;;13.20;98.40;;;;;;5135562;27;20204;-66
2022/02/24 10:27:17;;;;;;;2.97;2.78;;;13.40;97.50;;;;;;5135111;27;20242;-67
2022/02/24 10:29:53;;;;;;;2.58;2.38;;;13.70;97.00;;;;;;5134899;27;20623;-66
2022/02/24 10:32:33;;;;;;;2.50;2.22;;;13.80;95.40;;;;;;5135501;27;20204;-67
2022/02/24 10:35:21;;;;;;;2.58;2.38;;;14.00;94.90;;;;;;5135435;27;20655;-67
2022/02/24 10:38:01;;;;;;;4.60;2.40;;;14.20;93.50;;;;;;5134921;27;20725;-67
2022/02/24 10:40:31;;;;;;;3.83;2.88;;;14.40;93.20;;;;;;5134905;27;20285;-66
2022/02/24 10:43:10;;;;;;;3.03;2.50;;;14.30;92.80;;;;;;5134560;27;20696;-66
2022/02/24 10:45:37;;;;;;;3.22;2.53;;;14.20;92.40;;;;;;5134780;27;20222;-66
2022/02/24 10:48:08;;;;;;;4.68;3.58;;;14.20;92.40;;;;;;5134543;27;20226;-66
2022/02/24 10:50:46;;;;;;;3.90;2.70;;;14.10;91.90;;;;;;5134389;27;20201;-66
2022/02/24 10:53:14;;;;;;;3.83;2.72;;;14.00;91.90;;;;;;5134592;27;20201;-67
2022/02/24 10:55:55;;;;;;;2.40;2.20;;;14.00;91.90;;;;;;5134793;27;20659;-66
2022/02/24 10:58:22;;;;;;;2.97;2.20;;;14.00;91.70;;;;;;5134485;27;20216;-66
2022/02/24 11:01:00;;;;;;;3.15;2.50;;;14.00;91.90;;;;;;5137484;27;20204;-66
2022/02/24 11:03:29;;;;;;;2.50;2.30;;;14.00;91.90;;;;;;5138920;27;20212;-66
2022/02/24 11:05:56;;;;;;;3.25;2.80;;;14.00;91.80;;;;;;5138677;27;20201;-66
2022/02/24 11:08:25;;;;;;;2.83;2.30;;;14.10;91.30;;;;;;5138596;27;20221;-66
2022/02/24 11:10:53;;;;;;;3.88;2.85;;;14.20;90.70;;;;;;5138520;27;20201;-66
2022/02/24 11:13:20;;;;;;;2.95;2.58;;;14.20;90.40;;;;;;5138556;27;20236;-67
2022/02/24 11:15:47;;;;;;;2.65;2.45;;;14.30;90.40;;;;;;5138553;27;20283;-67
2022/02/24 11:18:15;;;;;;;3.55;2.35;;;14.50;90.30;;;;;;5138325;27;20215;-67
2022/02/24 11:20:42;;;;;;;2.40;2.20;;;14.80;90.10;;;;;;5138287;27;20235;-66
2022/02/24 11:23:09;;;;;;;2.80;2.60;;;15.20;89.30;;;;;;5138448;27;20556;-67
2022/02/24 11:25:49;;;;;;;3.35;2.88;;;15.60;87.30;;;;;;5138080;27;20204;-67
2022/02/24 11:28:18;;;;;;;7.55;5.85;;;16.00;85.80;;;;;;5138052;27;20681;-67
2022/02/24 11:30:48;;;;;;;5.03;2.95;;;16.20;84.80;;;;;;5137887;27;20680;-67
2022/02/24 11:33:16;;;;;;;4.53;3.47;;;16.40;83.20;;;;;;5138168;27;20196;-67
2022/02/24 11:35:43;;;;;;;2.90;2.50;;;16.60;81.30;;;;;;5137971;27;20688;-67
2022/02/24 11:38:13;;;;;;;2.42;2.22;;;16.40;79.60;;;;;;5138353;27;20323;-67
2022/02/24 11:40:41;;;;;;;2.75;1.90;;;16.20;79.50;;;;;;5137774;27;20203;-67
2022/02/24 11:43:11;;;;;;;2.65;1.67;;;16.00;77.10;;;;;;5137930;27;20300;-67
2022/02/24 11:45:39;;;;;;;2.25;1.67;;;15.80;77.70;;;;;;5137929;27;20208;-67
2022/02/24 11:48:07;;;;;;;4.38;2.17;;;15.60;77.70;;;;;;5137869;27;20319;-67
2022/02/24 11:50:39;;;;;;;1.90;1.80;;;15.50;77.20;;;;;;5137631;27;20245;-67
2022/02/24 11:53:08;;;;;;;2.97;2.13;;;15.60;78.80;;;;;;5137824;27;20203;-67
2022/02/24 11:55:45;;;;;;;1.75;1.60;;;15.60;77.30;;;;;;5137767;27;20615;-67
2022/02/24 11:58:41;;;;;;;2.72;2.13;;;15.30;74.80;;;;;;5137547;27;20219;-67
2022/02/24 12:01:13;;;;;;;2.33;2.05;;;15.20;75.10;;;;;;5137657;27;20545;-67
2022/02/24 12:03:58;;;;;;;2.17;1.98;;;15.00;74.40;;;;;;5137747;27;20203;-67
2022/02/24 12:06:41;;;;;;;2.08;1.88;;;15.00;76.00;;;;;;5137574;27;20584;-67
2022/02/24 12:09:09;;;;;;;2.33;1.80;;;14.90;75.80;;;;;;5137584;27;20219;-67
2022/02/24 12:11:39;;;;;;;2.47;2.00;;;15.00;76.60;;;;;;5136250;27;20201;-67
2022/02/24 12:14:55;;;;;;;4.35;1.80;;;14.90;75.60;;;;;;5137398;27;20208;-67
2022/02/24 12:17:28;;;;;;;2.22;2.00;;;14.90;74.40;;;;;;5137387;27;20315;-67
2022/02/24 12:19:58;;;;;;;3.28;1.85;;;14.80;73.30;;;;;;5137155;27;20199;-67
2022/02/24 12:22:44;;;;;;;2.65;1.90;;;14.80;73.60;;;;;;5137255;27;20202;-67
2022/02/24 12:25:20;;;;;;;2.38;1.80;;;14.90;74.10;;;;;;5137220;27;20209;-67
2022/02/24 12:27:57;;;;;;;2.63;1.80;;;14.90;73.60;;;;;;5136834;27;20313;-67
2022/02/24 12:30:30;;;;;;;2.80;1.63;;;15.00;73.50;;;;;;5137049;27;20213;-67
2022/02/24 12:33:06;;;;;;;3.25;1.88;;;15.00;72.60;;;;;;5137103;27;20226;-67
2022/02/24 12:35:35;;;;;;;2.75;2.00;;;14.90;72.60;;;;;;5136775;27;20637;-67
2022/02/24 12:38:03;;;;;;;2.42;1.80;;;14.80;73.10;;;;;;5136982;27;20332;-67
2022/02/24 12:40:32;;;;;;;4.60;2.22;;;14.80;73.80;;;;;;5136665;27;20199;-67
2022/02/24 12:43:03;;;;;;;2.28;1.95;;;14.80;73.30;;;;;;5136871;27;20204;-67
2022/02/24 12:45:32;;;;;;;2.20;1.80;;;14.80;73.10;;;;;;5136813;27;20656;-67
2022/02/24 12:48:00;;;;;;;2.85;2.30;;;14.60;72.80;;;;;;5136563;27;20314;-67
2022/02/24 12:50:33;;;;;;;2.80;2.15;;;14.60;73.40;;;;;;5136374;27;20202;-67
2022/02/24 12:53:08;;;;;;;3.42;1.60;;;14.50;73.60;;;;;;5136491;27;20300;-67